createdAt,value
2018-01-23T00:00:06.309Z,4.19
2018-01-23T00:01:11.158Z,4.19
2018-01-23T00:02:06.391Z,4.19
2018-01-23T00:03:06.420Z,4.19
2018-01-23T00:04:05.935Z,4.19
2018-01-23T00:05:06.103Z,4.19
2018-01-23T00:06:05.831Z,4.19
2018-01-23T00:07:10.742Z,4.12
2018-01-23T00:08:06.253Z,4.19
2018-01-23T00:09:06.470Z,4.19
2018-01-23T00:10:07.149Z,4.19
2018-01-23T00:11:06.215Z,4.19
2018-01-23T00:12:05.902Z,4.19
2018-01-23T00:13:05.742Z,4.12
2018-01-23T00:14:06.225Z,4.12
2018-01-23T00:15:05.673Z,4.12
2018-01-23T00:16:05.817Z,4.19
2018-01-23T00:17:06.077Z,4.12
2018-01-23T00:18:11.040Z,4.19
2018-01-23T00:19:06.391Z,4.12
2018-01-23T00:20:05.896Z,4.19
2018-01-23T00:21:05.922Z,4.19
2018-01-23T00:22:06.553Z,4.19
2018-01-23T00:23:05.918Z,4.19
2018-01-23T00:24:06.037Z,4.19
2018-01-23T00:25:05.900Z,4.19
2018-01-23T00:26:10.851Z,4.19
2018-01-23T00:27:06.500Z,4.19
2018-01-23T00:28:06.496Z,4.19
2018-01-23T00:29:05.746Z,4.19
2018-01-23T00:30:06.287Z,4.19
2018-01-23T00:31:05.498Z,4.19
2018-01-23T00:32:06.370Z,4.19
2018-01-23T00:33:06.734Z,4.19
2018-01-23T00:34:06.162Z,4.19
2018-01-23T00:35:06.073Z,4.19
2018-01-23T00:36:05.804Z,4.19
2018-01-23T00:37:06.388Z,4.19
2018-01-23T00:38:05.757Z,4.19
2018-01-23T00:39:05.739Z,4.19
2018-01-23T00:40:05.970Z,4.19
2018-01-23T00:41:06.392Z,4.19
2018-01-23T00:42:06.458Z,4.19
2018-01-23T00:43:05.905Z,4.19
2018-01-23T00:44:06.459Z,4.19
2018-01-23T00:45:05.940Z,4.19
2018-01-23T00:46:06.070Z,4.19
2018-01-23T00:47:06.280Z,4.19
2018-01-23T00:48:06.060Z,4.19
2018-01-23T00:49:06.023Z,4.19
2018-01-23T00:50:05.678Z,4.19
2018-01-23T00:51:06.147Z,4.19
2018-01-23T00:52:06.325Z,4.19
2018-01-23T00:53:05.906Z,4.19
2018-01-23T00:54:10.910Z,4.19
2018-01-23T00:55:05.673Z,4.25
2018-01-23T00:56:05.589Z,4.19
2018-01-23T00:57:05.846Z,4.25
2018-01-23T00:58:05.515Z,4.25
2018-01-23T00:59:06.442Z,4.25
2018-01-23T01:00:11.592Z,4.25
2018-01-23T01:01:06.230Z,4.25
2018-01-23T01:02:10.779Z,4.25
2018-01-23T01:03:06.463Z,4.25
2018-01-23T01:04:05.792Z,4.25
2018-01-23T01:05:05.583Z,4.25
2018-01-23T01:06:06.319Z,4.25
2018-01-23T01:07:05.662Z,4.25
2018-01-23T01:08:06.392Z,4.25
2018-01-23T01:09:06.071Z,4.25
2018-01-23T01:10:06.023Z,4.25
2018-01-23T01:11:05.776Z,4.25
2018-01-23T01:12:06.540Z,4.25
2018-01-23T01:13:05.823Z,4.25
2018-01-23T01:14:06.145Z,4.25
2018-01-23T01:15:06.045Z,4.25
2018-01-23T01:16:06.283Z,4.25
2018-01-23T01:17:06.212Z,4.25
2018-01-23T01:18:05.746Z,4.25
2018-01-23T01:19:06.151Z,4.25
2018-01-23T01:20:05.705Z,4.25
2018-01-23T01:21:05.694Z,4.25
2018-01-23T01:22:05.590Z,4.25
2018-01-23T01:23:06.303Z,4.25
2018-01-23T01:24:05.757Z,4.25
2018-01-23T01:25:05.596Z,4.25
2018-01-23T01:26:06.475Z,4.25
2018-01-23T01:27:06.579Z,4.25
2018-01-23T01:28:06.219Z,4.25
2018-01-23T01:29:05.831Z,4.25
2018-01-23T01:30:06.309Z,4.25
2018-01-23T01:31:05.982Z,4.25
2018-01-23T01:32:05.660Z,4.25
2018-01-23T01:33:06.417Z,4.25
2018-01-23T01:34:06.331Z,4.25
2018-01-23T01:35:05.980Z,4.25
2018-01-23T01:36:05.688Z,4.25
2018-01-23T01:37:06.636Z,4.25
2018-01-23T01:38:06.052Z,4.25
2018-01-23T01:39:06.165Z,4.25
2018-01-23T01:40:06.332Z,4.25
2018-01-23T01:41:11.004Z,4.25
2018-01-23T01:42:05.921Z,4.25
2018-01-23T01:43:06.246Z,4.31
2018-01-23T01:44:06.149Z,4.25
2018-01-23T01:45:06.655Z,4.25
2018-01-23T01:46:05.910Z,4.25
2018-01-23T01:47:06.230Z,4.25
2018-01-23T01:48:06.340Z,4.25
2018-01-23T01:49:05.832Z,4.25
2018-01-23T01:50:06.069Z,4.25
2018-01-23T01:51:05.738Z,4.25
2018-01-23T01:52:05.667Z,4.25
2018-01-23T01:53:05.601Z,4.25
2018-01-23T01:54:06.061Z,4.25
2018-01-23T01:55:10.502Z,4.25
2018-01-23T01:56:05.912Z,4.25
2018-01-23T01:57:06.304Z,4.25
2018-01-23T01:58:06.313Z,4.25
2018-01-23T01:59:06.553Z,4.25
2018-01-23T02:00:05.879Z,4.25
2018-01-23T02:01:05.833Z,4.25
2018-01-23T02:02:05.981Z,4.25
2018-01-23T02:03:06.393Z,4.25
2018-01-23T02:04:05.909Z,4.25
2018-01-23T02:05:06.229Z,4.25
2018-01-23T02:06:05.994Z,4.25
2018-01-23T02:07:06.060Z,4.25
2018-01-23T02:08:05.911Z,4.25
2018-01-23T02:09:05.659Z,4.25
2018-01-23T02:10:06.372Z,4.25
2018-01-23T02:11:06.385Z,4.25
2018-01-23T02:12:06.394Z,4.25
2018-01-23T02:13:05.909Z,4.25
2018-01-23T02:14:05.944Z,4.25
2018-01-23T02:15:05.911Z,4.25
2018-01-23T02:16:10.840Z,4.25
2018-01-23T02:17:06.788Z,4.25
2018-01-23T02:18:05.911Z,4.25
2018-01-23T02:19:11.169Z,4.25
2018-01-23T02:20:05.500Z,4.25
2018-01-23T02:21:06.219Z,4.25
2018-01-23T02:22:11.492Z,4.25
2018-01-23T02:23:06.545Z,4.25
2018-01-23T02:24:06.625Z,4.25
2018-01-23T02:25:06.096Z,4.25
2018-01-23T02:26:06.079Z,4.25
2018-01-23T02:27:06.218Z,4.25
2018-01-23T02:28:05.515Z,4.31
2018-01-23T02:29:06.517Z,4.25
2018-01-23T02:30:06.531Z,4.25
2018-01-23T02:31:05.848Z,4.25
2018-01-23T02:32:06.151Z,4.25
2018-01-23T02:33:05.990Z,4.25
2018-01-23T02:34:06.025Z,4.25
2018-01-23T02:35:06.072Z,4.25
2018-01-23T02:36:05.670Z,4.25
2018-01-23T02:37:06.416Z,4.25
2018-01-23T02:38:05.826Z,4.25
2018-01-23T02:39:05.925Z,4.25
2018-01-23T02:40:05.579Z,4.25
2018-01-23T02:41:05.911Z,4.25
2018-01-23T02:42:05.824Z,4.25
2018-01-23T02:43:06.872Z,4.31
2018-01-23T02:44:06.137Z,4.31
2018-01-23T02:45:06.076Z,4.31
2018-01-23T02:46:11.071Z,4.31
2018-01-23T02:47:05.772Z,4.25
2018-01-23T02:48:05.506Z,4.31
2018-01-23T02:49:06.305Z,4.31
2018-01-23T02:50:05.894Z,4.31
2018-01-23T02:51:05.750Z,4.31
2018-01-23T02:52:05.718Z,4.31
2018-01-23T02:53:06.016Z,4.31
2018-01-23T02:54:06.227Z,4.31
2018-01-23T02:55:06.221Z,4.31
2018-01-23T02:56:05.878Z,4.31
2018-01-23T02:57:06.570Z,4.31
2018-01-23T02:58:05.758Z,4.31
2018-01-23T02:59:05.981Z,4.31
2018-01-23T03:00:05.761Z,4.31
2018-01-23T03:01:06.224Z,4.31
2018-01-23T03:02:05.898Z,4.31
2018-01-23T03:03:05.576Z,4.31
2018-01-23T03:04:06.128Z,4.31
2018-01-23T03:05:05.670Z,4.31
2018-01-23T03:06:06.312Z,4.31
2018-01-23T03:07:05.919Z,4.31
2018-01-23T03:08:05.917Z,4.31
2018-01-23T03:09:06.144Z,4.31
2018-01-23T03:10:05.804Z,4.31
2018-01-23T03:11:05.825Z,4.31
2018-01-23T03:12:06.227Z,4.31
2018-01-23T03:13:06.432Z,4.31
2018-01-23T03:14:06.564Z,4.31
2018-01-23T03:15:06.037Z,4.31
2018-01-23T03:16:05.823Z,4.31
2018-01-23T03:17:06.309Z,4.31
2018-01-23T03:18:05.659Z,4.31
2018-01-23T03:19:05.895Z,4.31
2018-01-23T03:20:05.912Z,4.31
2018-01-23T03:21:05.521Z,4.31
2018-01-23T03:22:06.313Z,4.31
2018-01-23T03:23:06.469Z,4.31
2018-01-23T03:24:05.905Z,4.31
2018-01-23T03:25:06.452Z,4.31
2018-01-23T03:26:06.549Z,4.31
2018-01-23T03:27:06.569Z,4.31
2018-01-23T03:28:06.636Z,4.31
2018-01-23T03:29:06.143Z,4.31
2018-01-23T03:30:06.433Z,4.31
2018-01-23T03:31:06.470Z,4.31
2018-01-23T03:32:06.217Z,4.31
2018-01-23T03:33:06.225Z,4.31
2018-01-23T03:34:06.003Z,4.31
2018-01-23T03:35:05.741Z,4.31
2018-01-23T03:36:06.073Z,4.31
2018-01-23T03:37:05.733Z,4.31
2018-01-23T03:38:06.068Z,4.31
2018-01-23T03:39:06.380Z,4.31
2018-01-23T03:40:06.377Z,4.31
2018-01-23T03:41:05.507Z,4.31
2018-01-23T03:42:06.223Z,4.31
2018-01-23T03:43:06.301Z,4.31
2018-01-23T03:44:05.901Z,4.31
2018-01-23T03:45:06.059Z,4.31
2018-01-23T03:46:06.456Z,4.31
2018-01-23T03:47:06.232Z,4.31
2018-01-23T03:48:06.195Z,4.31
2018-01-23T03:49:06.164Z,4.31
2018-01-23T03:50:06.469Z,4.31
2018-01-23T03:51:06.152Z,4.31
2018-01-23T03:52:05.818Z,4.31
2018-01-23T03:53:06.471Z,4.31
2018-01-23T03:54:05.841Z,4.31
2018-01-23T03:55:10.625Z,4.31
2018-01-23T03:56:06.097Z,4.31
2018-01-23T03:57:05.982Z,4.31
2018-01-23T03:58:05.777Z,4.31
2018-01-23T03:59:06.592Z,4.31
2018-01-23T04:00:06.219Z,4.31
2018-01-23T04:01:06.319Z,4.31
2018-01-23T04:02:06.310Z,4.31
2018-01-23T04:03:06.411Z,4.31
2018-01-23T04:04:06.004Z,4.31
2018-01-23T04:05:06.190Z,4.31
2018-01-23T04:06:05.629Z,4.31
2018-01-23T04:07:06.694Z,4.31
2018-01-23T04:08:11.019Z,4.31
2018-01-23T04:09:06.471Z,4.31
2018-01-23T04:10:06.231Z,4.31
2018-01-23T04:11:06.617Z,4.31
2018-01-23T04:12:06.470Z,4.31
2018-01-23T04:13:05.796Z,4.31
2018-01-23T04:14:06.790Z,4.31
2018-01-23T04:15:06.220Z,4.31
2018-01-23T04:16:06.144Z,4.31
2018-01-23T04:17:05.664Z,4.31
2018-01-23T04:18:05.516Z,4.31
2018-01-23T04:19:05.579Z,4.31
2018-01-23T04:20:05.657Z,4.31
2018-01-23T04:21:05.581Z,4.31
2018-01-23T04:22:05.657Z,4.31
2018-01-23T04:23:05.845Z,4.31
2018-01-23T04:24:10.759Z,4.31
2018-01-23T04:25:06.526Z,4.31
2018-01-23T04:26:06.147Z,4.31
2018-01-23T04:27:06.495Z,4.31
2018-01-23T04:28:06.470Z,4.31
2018-01-23T04:29:06.258Z,4.31
2018-01-23T04:30:05.985Z,4.31
2018-01-23T04:31:06.065Z,4.31
2018-01-23T04:32:06.462Z,4.31
2018-01-23T04:33:06.397Z,4.31
2018-01-23T04:34:05.980Z,4.31
2018-01-23T04:35:05.593Z,4.31
2018-01-23T04:36:05.584Z,4.31
2018-01-23T04:37:05.826Z,4.31
2018-01-23T04:38:07.022Z,4.31
2018-01-23T04:39:05.824Z,4.31
2018-01-23T04:40:06.058Z,4.31
2018-01-23T04:41:06.715Z,4.31
2018-01-23T04:42:06.314Z,4.31
2018-01-23T04:43:05.993Z,4.31
2018-01-23T04:44:05.723Z,4.31
2018-01-23T04:45:05.595Z,4.31
2018-01-23T04:46:05.830Z,4.31
2018-01-23T04:47:06.314Z,4.31
2018-01-23T04:48:06.204Z,4.31
2018-01-23T04:49:06.549Z,4.31
2018-01-23T04:50:06.410Z,4.31
2018-01-23T04:51:06.062Z,4.31
2018-01-23T04:52:06.108Z,4.31
2018-01-23T04:53:06.008Z,4.31
2018-01-23T04:54:05.904Z,4.31
2018-01-23T04:55:06.229Z,4.31
2018-01-23T04:56:11.206Z,4.31
2018-01-23T04:57:06.030Z,4.31
2018-01-23T04:58:06.458Z,4.25
2018-01-23T04:59:10.510Z,4.25
2018-01-23T05:00:05.772Z,4.25
2018-01-23T05:01:10.761Z,4.25
2018-01-23T05:02:06.540Z,4.25
2018-01-23T05:03:06.074Z,4.25
2018-01-23T05:04:05.893Z,4.25
2018-01-23T05:05:05.598Z,4.25
2018-01-23T05:06:06.388Z,4.25
2018-01-23T05:07:06.272Z,4.19
2018-01-23T05:08:05.675Z,4.19
2018-01-23T05:09:06.710Z,4.19
2018-01-23T05:10:06.004Z,4.19
2018-01-23T05:11:05.903Z,4.19
2018-01-23T05:12:06.092Z,4.19
2018-01-23T05:13:05.744Z,4.19
2018-01-23T05:14:05.986Z,4.19
2018-01-23T05:15:05.919Z,4.19
2018-01-23T05:16:06.303Z,4.19
2018-01-23T05:17:06.637Z,4.19
2018-01-23T05:18:06.306Z,4.19
2018-01-23T05:19:06.530Z,4.19
2018-01-23T05:20:06.532Z,4.19
2018-01-23T05:21:10.933Z,4.19
2018-01-23T05:22:05.667Z,4.19
2018-01-23T05:23:06.394Z,4.19
2018-01-23T05:24:06.402Z,4.19
2018-01-23T05:25:06.539Z,4.19
2018-01-23T05:26:05.679Z,4.12
2018-01-23T05:27:10.592Z,4.12
2018-01-23T05:28:06.811Z,4.12
2018-01-23T05:29:06.389Z,4.12
2018-01-23T05:30:05.816Z,4.12
2018-01-23T05:31:06.584Z,4.12
2018-01-23T05:32:05.991Z,4.12
2018-01-23T05:33:06.556Z,4.12
2018-01-23T05:34:06.393Z,4.12
2018-01-23T05:35:06.069Z,4.12
2018-01-23T05:36:05.931Z,4.12
2018-01-23T05:37:06.466Z,4.19
2018-01-23T05:38:05.995Z,4.12
2018-01-23T05:39:05.581Z,4.12
2018-01-23T05:40:06.213Z,4.12
2018-01-23T05:41:06.689Z,4.19
2018-01-23T05:42:06.467Z,4.12
2018-01-23T05:43:06.583Z,4.12
2018-01-23T05:44:06.096Z,4.12
2018-01-23T05:45:06.156Z,4.12
2018-01-23T05:46:05.935Z,4.12
2018-01-23T05:47:06.626Z,4.12
2018-01-23T05:48:05.997Z,4.12
2018-01-23T05:49:05.797Z,4.12
2018-01-23T05:50:06.391Z,4.12
2018-01-23T05:51:11.230Z,4.12
2018-01-23T05:52:05.844Z,4.12
2018-01-23T05:53:05.818Z,4.12
2018-01-23T05:54:05.833Z,4.12
2018-01-23T05:55:06.730Z,4.12
2018-01-23T05:56:06.703Z,4.19
2018-01-23T05:57:05.713Z,4.19
2018-01-23T05:58:06.097Z,4.12
2018-01-23T05:59:05.753Z,4.12
2018-01-23T06:00:06.153Z,4.19
2018-01-23T06:01:05.822Z,4.12
2018-01-23T06:02:06.468Z,4.19
2018-01-23T06:03:06.632Z,4.19
2018-01-23T06:04:06.066Z,4.19
2018-01-23T06:05:05.819Z,4.19
2018-01-23T06:06:05.916Z,4.19
2018-01-23T06:07:05.753Z,4.19
2018-01-23T06:08:11.146Z,4.12
2018-01-23T06:09:05.969Z,4.19
2018-01-23T06:10:06.389Z,4.19
2018-01-23T06:11:06.545Z,4.19
2018-01-23T06:12:06.000Z,4.19
2018-01-23T06:13:06.567Z,4.19
2018-01-23T06:14:05.825Z,4.19
2018-01-23T06:15:05.682Z,4.19
2018-01-23T06:16:05.824Z,4.19
2018-01-23T06:17:06.488Z,4.19
2018-01-23T06:18:05.971Z,4.19
2018-01-23T06:19:05.694Z,4.19
2018-01-23T06:20:11.421Z,4.19
2018-01-23T06:21:06.177Z,4.19
2018-01-23T06:22:06.563Z,4.19
2018-01-23T06:23:06.230Z,4.19
2018-01-23T06:24:05.845Z,4.19
2018-01-23T06:25:06.463Z,4.19
2018-01-23T06:26:06.641Z,4.19
2018-01-23T06:27:06.380Z,4.19
2018-01-23T06:28:06.387Z,4.19
2018-01-23T06:29:06.000Z,4.19
2018-01-23T06:30:05.779Z,4.19
2018-01-23T06:31:10.580Z,4.19
2018-01-23T06:32:06.150Z,4.19
2018-01-23T06:33:06.872Z,4.19
2018-01-23T06:34:06.423Z,4.19
2018-01-23T06:35:05.507Z,4.19
2018-01-23T06:36:06.393Z,4.19
2018-01-23T06:37:05.909Z,4.19
2018-01-23T06:38:05.824Z,4.19
2018-01-23T06:39:06.587Z,4.19
2018-01-23T06:40:06.066Z,4.19
2018-01-23T06:41:05.956Z,4.12
2018-01-23T06:42:06.031Z,4.19
2018-01-23T06:43:06.149Z,4.19
2018-01-23T06:44:06.069Z,4.19
2018-01-23T06:45:11.068Z,4.19
2018-01-23T06:46:06.647Z,4.19
2018-01-23T06:47:05.617Z,4.19
2018-01-23T06:48:05.915Z,4.19
2018-01-23T06:49:05.615Z,4.19
2018-01-23T06:50:06.136Z,4.19
2018-01-23T06:51:06.229Z,4.19
2018-01-23T06:52:06.306Z,4.19
2018-01-23T06:53:06.061Z,4.19
2018-01-23T06:54:11.072Z,4.19
2018-01-23T06:55:05.705Z,4.19
2018-01-23T06:56:05.842Z,4.19
2018-01-23T06:57:06.309Z,4.19
2018-01-23T06:58:06.483Z,4.19
2018-01-23T06:59:06.715Z,4.19
2018-01-23T07:00:06.079Z,4.19
2018-01-23T07:01:10.858Z,4.19
2018-01-23T07:02:06.495Z,4.19
2018-01-23T07:03:06.476Z,4.19
2018-01-23T07:04:05.607Z,4.19
2018-01-23T07:05:06.385Z,4.19
2018-01-23T07:06:06.491Z,4.19
2018-01-23T07:07:05.915Z,4.19
2018-01-23T07:08:06.598Z,4.19
2018-01-23T07:09:06.301Z,4.19
2018-01-23T07:10:06.100Z,4.19
2018-01-23T07:11:06.158Z,4.19
2018-01-23T07:12:06.068Z,4.19
2018-01-23T07:13:06.318Z,4.25
2018-01-23T07:14:06.063Z,4.19
2018-01-23T07:15:06.352Z,4.19
2018-01-23T07:16:06.311Z,4.19
2018-01-23T07:17:06.080Z,4.19
2018-01-23T07:18:06.157Z,4.25
2018-01-23T07:19:06.139Z,4.19
2018-01-23T07:20:05.716Z,4.19
2018-01-23T07:21:06.545Z,4.19
2018-01-23T07:22:05.832Z,4.25
2018-01-23T07:23:06.491Z,4.19
2018-01-23T07:24:06.475Z,4.19
2018-01-23T07:25:05.509Z,4.19
2018-01-23T07:26:05.755Z,4.25
2018-01-23T07:27:05.931Z,4.25
2018-01-23T07:28:06.325Z,4.25
2018-01-23T07:29:06.541Z,4.25
2018-01-23T07:30:06.297Z,4.25
2018-01-23T07:31:06.167Z,4.25
2018-01-23T07:32:06.310Z,4.25
2018-01-23T07:33:06.401Z,4.25
2018-01-23T07:34:05.507Z,4.25
2018-01-23T07:35:06.621Z,4.25
2018-01-23T07:36:06.230Z,4.25
2018-01-23T07:37:05.905Z,4.25
2018-01-23T07:38:06.266Z,4.25
2018-01-23T07:39:06.099Z,4.25
2018-01-23T07:40:05.888Z,4.25
2018-01-23T07:41:06.554Z,4.25
2018-01-23T07:42:05.821Z,4.25
2018-01-23T07:43:06.503Z,4.25
2018-01-23T07:44:05.825Z,4.25
2018-01-23T07:45:06.303Z,4.25
2018-01-23T07:46:06.393Z,4.31
2018-01-23T07:47:05.913Z,4.25
2018-01-23T07:48:05.816Z,4.31
2018-01-23T07:49:06.482Z,4.31
2018-01-23T07:50:06.020Z,4.31
2018-01-23T07:51:05.613Z,4.31
2018-01-23T07:52:05.856Z,4.31
2018-01-23T07:53:06.015Z,4.31
2018-01-23T07:54:05.668Z,4.31
2018-01-23T07:55:06.403Z,4.31
2018-01-23T07:56:05.422Z,4.31
2018-01-23T07:57:06.330Z,4.31
2018-01-23T07:58:06.702Z,4.31
2018-01-23T07:59:06.224Z,4.31
2018-01-23T08:00:06.377Z,4.31
2018-01-23T08:01:06.242Z,4.31
2018-01-23T08:02:05.863Z,4.31
2018-01-23T08:03:06.401Z,4.31
2018-01-23T08:04:06.225Z,4.31
2018-01-23T08:05:06.175Z,4.31
2018-01-23T08:06:06.468Z,4.31
2018-01-23T08:07:06.053Z,4.31
2018-01-23T08:08:06.184Z,4.31
2018-01-23T08:09:05.587Z,4.38
2018-01-23T08:10:05.976Z,4.31
2018-01-23T08:11:06.111Z,4.38
2018-01-23T08:12:05.743Z,4.38
2018-01-23T08:13:06.230Z,4.38
2018-01-23T08:14:05.817Z,4.38
2018-01-23T08:15:06.086Z,4.38
2018-01-23T08:16:06.083Z,4.38
2018-01-23T08:17:11.084Z,4.38
2018-01-23T08:18:06.692Z,4.44
2018-01-23T08:19:05.627Z,4.44
2018-01-23T08:20:05.976Z,4.44
2018-01-23T08:21:05.901Z,4.44
2018-01-23T08:22:05.922Z,4.44
2018-01-23T08:23:05.842Z,4.44
2018-01-23T08:24:05.732Z,4.50
2018-01-23T08:25:05.668Z,4.50
2018-01-23T08:26:05.518Z,4.50
2018-01-23T08:27:06.319Z,4.50
2018-01-23T08:28:05.953Z,4.56
2018-01-23T08:29:11.372Z,4.56
2018-01-23T08:30:05.814Z,4.56
2018-01-23T08:31:05.985Z,4.56
2018-01-23T08:32:06.313Z,4.56
2018-01-23T08:33:05.656Z,4.62
2018-01-23T08:34:06.623Z,4.62
2018-01-23T08:35:05.609Z,4.62
2018-01-23T08:36:05.532Z,4.62
2018-01-23T08:37:05.822Z,4.62
2018-01-23T08:38:05.504Z,4.69
2018-01-23T08:39:06.168Z,4.69
2018-01-23T08:40:06.636Z,4.69
2018-01-23T08:41:05.705Z,4.69
2018-01-23T08:42:06.530Z,4.75
2018-01-23T08:43:05.901Z,4.75
2018-01-23T08:44:05.946Z,4.75
2018-01-23T08:45:06.511Z,4.75
2018-01-23T08:46:11.221Z,4.75
2018-01-23T08:47:05.578Z,4.75
2018-01-23T08:48:06.573Z,4.81
2018-01-23T08:49:06.711Z,4.81
2018-01-23T08:50:06.392Z,4.81
2018-01-23T08:51:06.312Z,4.81
2018-01-23T08:52:06.634Z,4.81
2018-01-23T08:53:06.540Z,4.88
2018-01-23T08:54:05.671Z,4.88
2018-01-23T08:55:05.916Z,4.88
2018-01-23T08:56:05.986Z,4.88
2018-01-23T08:57:05.820Z,4.94
2018-01-23T08:58:05.757Z,4.94
2018-01-23T08:59:05.755Z,4.94
2018-01-23T09:00:06.480Z,5.00
2018-01-23T09:01:05.881Z,5.00
2018-01-23T09:02:06.065Z,5.00
2018-01-23T09:03:06.494Z,5.00
2018-01-23T09:04:05.837Z,5.00
2018-01-23T09:05:06.813Z,5.06
2018-01-23T09:06:05.900Z,5.06
2018-01-23T09:07:05.901Z,5.06
2018-01-23T09:08:06.243Z,5.06
2018-01-23T09:09:06.223Z,5.06
2018-01-23T09:10:06.074Z,5.12
2018-01-23T09:11:06.076Z,5.12
2018-01-23T09:12:07.019Z,5.12
2018-01-23T09:13:05.905Z,5.12
2018-01-23T09:14:05.850Z,5.19
2018-01-23T09:15:05.777Z,5.19
2018-01-23T09:16:05.826Z,5.19
2018-01-23T09:17:05.920Z,5.19
2018-01-23T09:18:06.327Z,5.25
2018-01-23T09:19:05.924Z,5.25
2018-01-23T09:20:06.502Z,5.25
2018-01-23T09:21:06.087Z,5.25
2018-01-23T09:22:06.376Z,5.31
2018-01-23T09:23:05.743Z,5.31
2018-01-23T09:24:05.984Z,5.31
2018-01-23T09:25:06.151Z,5.31
2018-01-23T09:26:06.226Z,5.38
2018-01-23T09:27:06.301Z,5.38
2018-01-23T09:28:06.225Z,5.38
2018-01-23T09:29:06.301Z,5.38
2018-01-23T09:30:05.585Z,5.38
2018-01-23T09:31:05.772Z,5.44
2018-01-23T09:32:11.225Z,5.44
2018-01-23T09:33:05.982Z,5.50
2018-01-23T09:34:11.498Z,5.50
2018-01-23T09:35:05.901Z,5.50
2018-01-23T09:36:06.248Z,5.50
2018-01-23T09:37:06.144Z,5.50
2018-01-23T09:38:05.936Z,5.56
2018-01-23T09:39:11.043Z,5.56
2018-01-23T09:40:05.829Z,5.62
2018-01-23T09:41:05.906Z,5.62
2018-01-23T09:42:05.907Z,5.69
2018-01-23T09:43:05.822Z,5.69
2018-01-23T09:44:06.652Z,5.69
2018-01-23T09:45:06.800Z,5.69
2018-01-23T09:46:10.783Z,5.69
2018-01-23T09:47:06.063Z,5.69
2018-01-23T09:48:05.820Z,5.75
2018-01-23T09:49:06.245Z,5.75
2018-01-23T09:50:05.660Z,5.75
2018-01-23T09:51:11.317Z,5.81
2018-01-23T09:52:05.985Z,5.81
2018-01-23T09:53:05.747Z,5.81
2018-01-23T09:54:05.842Z,5.81
2018-01-23T09:55:06.935Z,5.88
2018-01-23T09:56:06.146Z,5.88
2018-01-23T09:57:05.983Z,5.88
2018-01-23T09:58:05.660Z,5.88
2018-01-23T09:59:06.478Z,5.94
2018-01-23T10:00:05.988Z,5.94
2018-01-23T10:01:05.581Z,5.94
2018-01-23T10:02:05.995Z,5.94
2018-01-23T10:03:06.217Z,6.00
2018-01-23T10:04:06.067Z,6.00
2018-01-23T10:05:10.830Z,6.00
2018-01-23T10:06:06.423Z,6.06
2018-01-23T10:07:05.591Z,6.06
2018-01-23T10:08:06.594Z,6.06
2018-01-23T10:09:05.902Z,6.06
2018-01-23T10:10:06.004Z,6.12
2018-01-23T10:11:05.833Z,6.12
2018-01-23T10:12:06.142Z,6.12
2018-01-23T10:13:06.380Z,6.12
2018-01-23T10:14:06.802Z,6.12
2018-01-23T10:15:06.543Z,6.19
2018-01-23T10:16:05.611Z,6.19
2018-01-23T10:17:05.827Z,6.19
2018-01-23T10:18:05.905Z,6.19
2018-01-23T10:19:05.915Z,6.19
2018-01-23T10:20:11.475Z,6.25
2018-01-23T10:21:06.153Z,6.25
2018-01-23T10:22:05.827Z,6.25
2018-01-23T10:23:06.380Z,6.25
2018-01-23T10:24:06.250Z,6.31
2018-01-23T10:25:06.392Z,6.31
2018-01-23T10:26:05.666Z,6.31
2018-01-23T10:27:06.194Z,6.31
2018-01-23T10:28:05.854Z,6.38
2018-01-23T10:29:05.907Z,6.38
2018-01-23T10:30:06.438Z,6.38
2018-01-23T10:31:10.689Z,6.38
2018-01-23T10:32:06.238Z,6.38
2018-01-23T10:33:05.609Z,6.44
2018-01-23T10:34:06.062Z,6.44
2018-01-23T10:35:06.252Z,6.44
2018-01-23T10:36:05.832Z,6.50
2018-01-23T10:37:05.493Z,6.50
2018-01-23T10:38:06.098Z,6.50
2018-01-23T10:39:05.822Z,6.56
2018-01-23T10:40:10.697Z,6.56
2018-01-23T10:41:06.167Z,6.56
2018-01-23T10:42:06.036Z,6.62
2018-01-23T10:43:06.066Z,6.62
2018-01-23T10:44:05.746Z,6.62
2018-01-23T10:45:06.318Z,6.69
2018-01-23T10:46:06.472Z,6.69
2018-01-23T10:47:06.393Z,6.75
2018-01-23T10:48:05.931Z,6.75
2018-01-23T10:49:05.640Z,6.75
2018-01-23T10:50:06.231Z,6.81
2018-01-23T10:51:05.725Z,6.81
2018-01-23T10:52:06.553Z,6.81
2018-01-23T10:53:11.125Z,6.88
2018-01-23T10:54:05.825Z,6.88
2018-01-23T10:55:06.559Z,6.94
2018-01-23T10:56:06.625Z,7.00
2018-01-23T10:57:06.502Z,7.06
2018-01-23T10:58:05.824Z,7.06
2018-01-23T10:59:10.763Z,7.06
2018-01-23T11:00:06.269Z,7.06
2018-01-23T11:01:10.905Z,7.12
2018-01-23T11:02:05.513Z,7.19
2018-01-23T11:03:06.032Z,7.19
2018-01-23T11:04:05.905Z,7.25
2018-01-23T11:05:11.389Z,7.31
2018-01-23T11:06:05.913Z,7.31
2018-01-23T11:07:06.234Z,7.31
2018-01-23T11:08:06.140Z,7.31
2018-01-23T11:09:10.853Z,7.38
2018-01-23T11:10:05.494Z,7.38
2018-01-23T11:11:06.379Z,7.38
2018-01-23T11:12:06.476Z,7.38
2018-01-23T11:13:05.820Z,7.38
2018-01-23T11:14:05.756Z,7.38
2018-01-23T11:15:05.917Z,7.38
2018-01-23T11:16:05.762Z,7.38
2018-01-23T11:17:06.228Z,7.38
2018-01-23T11:18:06.074Z,7.38
2018-01-23T11:19:06.063Z,7.38
2018-01-23T11:20:06.159Z,7.38
2018-01-23T11:21:05.824Z,7.38
2018-01-23T11:22:06.495Z,7.38
2018-01-23T11:23:06.209Z,7.44
2018-01-23T11:24:05.862Z,7.44
2018-01-23T11:25:06.471Z,7.44
2018-01-23T11:26:06.071Z,7.44
2018-01-23T11:27:06.224Z,7.44
2018-01-23T11:28:06.216Z,7.44
2018-01-23T11:29:05.913Z,7.44
2018-01-23T11:30:06.142Z,7.44
2018-01-23T11:31:06.301Z,7.44
2018-01-23T11:32:05.992Z,7.44
2018-01-23T11:33:05.690Z,7.44
2018-01-23T11:34:06.568Z,7.44
2018-01-23T11:35:05.988Z,7.44
2018-01-23T11:36:05.901Z,7.44
2018-01-23T11:37:05.863Z,7.44
2018-01-23T11:38:05.605Z,7.44
2018-01-23T11:39:05.681Z,7.44
2018-01-23T11:40:06.548Z,7.44
2018-01-23T11:41:06.393Z,7.44
2018-01-23T11:42:05.933Z,7.44
2018-01-23T11:43:06.640Z,7.44
2018-01-23T11:44:06.065Z,7.44
2018-01-23T11:45:05.911Z,7.44
2018-01-23T11:46:06.166Z,7.44
2018-01-23T11:47:06.398Z,7.44
2018-01-23T11:48:05.926Z,7.44
2018-01-23T11:49:06.467Z,7.44
2018-01-23T11:50:05.502Z,7.38
2018-01-23T11:51:06.414Z,7.38
2018-01-23T11:52:06.152Z,7.38
2018-01-23T11:53:06.151Z,7.38
2018-01-23T11:54:10.819Z,7.38
2018-01-23T11:55:06.156Z,7.38
2018-01-23T11:56:05.795Z,7.38
2018-01-23T11:57:06.105Z,7.38
2018-01-23T11:58:05.757Z,7.38
2018-01-23T11:59:06.148Z,7.31
2018-01-23T12:00:05.733Z,7.31
2018-01-23T12:01:06.069Z,7.31
2018-01-23T12:02:06.152Z,7.31
2018-01-23T12:03:05.902Z,7.31
2018-01-23T12:04:05.982Z,7.31
2018-01-23T12:05:10.892Z,7.31
2018-01-23T12:06:05.679Z,7.31
2018-01-23T12:07:05.779Z,7.31
2018-01-23T12:08:06.054Z,7.31
2018-01-23T12:09:06.314Z,7.31
2018-01-23T12:10:05.575Z,7.31
2018-01-23T12:11:11.563Z,7.31
2018-01-23T12:12:06.633Z,7.25
2018-01-23T12:13:05.990Z,7.31
2018-01-23T12:14:10.929Z,7.31
2018-01-23T12:15:05.670Z,7.31
2018-01-23T12:16:06.554Z,7.25
2018-01-23T12:17:05.931Z,7.25
2018-01-23T12:18:05.824Z,7.25
2018-01-23T12:19:05.831Z,7.25
2018-01-23T12:20:05.904Z,7.25
2018-01-23T12:21:05.759Z,7.25
2018-01-23T12:22:06.462Z,7.25
2018-01-23T12:23:06.390Z,7.25
2018-01-23T12:24:06.073Z,7.25
2018-01-23T12:25:05.990Z,7.25
2018-01-23T12:26:11.247Z,7.25
2018-01-23T12:27:05.908Z,7.25
2018-01-23T12:28:06.547Z,7.25
2018-01-23T12:29:05.755Z,7.25
2018-01-23T12:30:06.596Z,7.25
2018-01-23T12:31:06.320Z,7.25
2018-01-23T12:32:06.718Z,7.25
2018-01-23T12:33:06.940Z,7.25
2018-01-23T12:34:06.077Z,7.25
2018-01-23T12:35:06.621Z,7.25
2018-01-23T12:36:05.916Z,7.25
2018-01-23T12:37:06.484Z,7.25
2018-01-23T12:38:06.069Z,7.25
2018-01-23T12:39:05.822Z,7.25
2018-01-23T12:40:06.130Z,7.25
2018-01-23T12:41:06.106Z,7.25
2018-01-23T12:42:10.932Z,7.25
2018-01-23T12:43:05.744Z,7.25
2018-01-23T12:44:05.745Z,7.25
2018-01-23T12:45:05.699Z,7.25
2018-01-23T12:46:06.401Z,7.25
2018-01-23T12:47:06.553Z,7.25
2018-01-23T12:48:05.746Z,7.31
2018-01-23T12:49:06.700Z,7.31
2018-01-23T12:50:05.789Z,7.31
2018-01-23T12:51:06.015Z,7.31
2018-01-23T12:52:06.479Z,7.31
2018-01-23T12:53:06.474Z,7.25
2018-01-23T12:54:06.566Z,7.25
2018-01-23T12:55:05.590Z,7.25
2018-01-23T12:56:06.558Z,7.25
2018-01-23T12:57:06.442Z,7.25
2018-01-23T12:58:10.705Z,7.31
2018-01-23T12:59:07.430Z,7.25
2018-01-23T13:00:06.637Z,7.25
2018-01-23T13:01:06.218Z,7.25
2018-01-23T13:02:06.083Z,7.25
2018-01-23T13:03:06.555Z,7.25
2018-01-23T13:04:06.191Z,7.25
2018-01-23T13:05:06.430Z,7.25
2018-01-23T13:06:06.538Z,7.25
2018-01-23T13:07:06.158Z,7.31
2018-01-23T13:08:06.148Z,7.31
2018-01-23T13:09:06.160Z,7.31
2018-01-23T13:10:06.230Z,7.25
2018-01-23T13:11:06.156Z,7.31
2018-01-23T13:12:06.331Z,7.31
2018-01-23T13:13:06.400Z,7.31
2018-01-23T13:14:05.819Z,7.31
2018-01-23T13:15:06.517Z,7.31
2018-01-23T13:16:05.982Z,7.31
2018-01-23T13:17:05.898Z,7.31
2018-01-23T13:18:05.665Z,7.38